メインページ
METAR-TAF:

METAR-TAF

空港 :

Mount Clemens, ミシガン州, アメリカ合衆国

緯度: 42-37N, 経度: 082-50W, 海抜: 177m

現時点の気象観測

当レポートは45分前の15:14(UTC)に作成
北西の風 3kt
気温 26°C
湿度 89%
気圧 1013 hPa
視程: 16.1km
高度1500ftの千切れ雲あり

METAR: KMTC 211514Z 32003KT 10SM BKN015 26/24 A2991 RMK AO2A SLP130

時間: 11:59 (15:59 UTC)

予報

当レポートは1時間9分前の14:50(UTC)に作成
予報は21日の 14時(UTC)から 22日の 15時(UTC)まで有効
変向風 6kt
視程10km以上
高度1000ftの千切れ雲あり
21日の 15時(UTC)から 21日の 16時(UTC)まで徐々に
西/北西の風 9kt
視程10km以上
高度2000ftの雲は散在している
21日の 19時(UTC)から 21日の 20時(UTC)まで徐々に
西の風 10kt、最大15ktの突風を伴う
視程10km以上
高度6000ftの雲はほとんどない
22日の 06時(UTC)から 22日の 07時(UTC)まで徐々に
変向風 6kt
視程10km以上
高度4000ftの雲はほとんどない

TAF: KMTC 211450Z 2114/2215 VRB06KT 9999 BKN010 QNH2986INS BECMG 2115/2116 30009KT 9999 SCT020 QNH2987INS BECMG 2119/2120 28010G15KT 9999 FEW060 QNH2983INS BECMG 2206/2207 VRB06KT 9999 FEW040 QNH2997INS TX29/2120Z TN16/2209Z

4,000以上の空港の気象観測と天気予報(METAR報とTAF報)

利用可能な観測所は地図上に黄色い丸と赤い丸で示す。

丸の上にカーソルを重ねると観測所名を参照できる。

次にクリックすると気象観測と天気予報を参照できる。

マップの切り替え:黒色「×」印の緑ボタンをクリックして拡大、「-」印の緑ボタンをクリックして縮小、緑色の三角印をクリックして隣りの地図に切り替え


METAR-TAF: